Time;durP1;ratioP1;P1;durP2;ratioP2;P2;SDS_P1;SDS_P2;PMS_P1;PMS_P2;Temp;Humidity;BMP_temperature;BMP_pressure;BME280_temperature;BME280_humidity;BME280_pressure;Samples;Min_cycle;Max_cycle;Signal;HPM_P1;HPM_P2
2022/05/18 00:02:00;;;;;;;6.43;4.00;;;27.90;96.00;;;;;;5083925;28;20111;-54
2022/05/18 00:04:30;;;;;;;9.30;3.80;;;27.90;95.90;;;;;;5082768;28;20024;-54
2022/05/18 00:06:56;;;;;;;5.82;3.53;;;27.90;95.90;;;;;;5083844;28;20027;-54
2022/05/18 00:09:23;;;;;;;8.05;3.17;;;27.90;96.00;;;;;;5083662;28;20056;-55
2022/05/18 00:11:50;;;;;;;4.72;3.30;;;27.90;96.00;;;;;;5084486;28;20024;-51
2022/05/18 00:14:20;;;;;;;6.13;3.20;;;27.90;96.00;;;;;;5083933;28;20305;-52
2022/05/18 00:16:50;;;;;;;8.52;3.85;;;27.90;96.00;;;;;;5084162;28;20292;-48
2022/05/18 00:19:17;;;;;;;5.22;3.83;;;27.90;96.00;;;;;;5083628;28;20024;-52
2022/05/18 00:21:45;;;;;;;6.25;4.57;;;27.90;96.00;;;;;;5083749;28;20101;-53
2022/05/18 00:24:13;;;;;;;6.93;4.65;;;27.90;96.00;;;;;;5083436;28;20081;-56
2022/05/18 00:26:40;;;;;;;7.93;4.68;;;27.90;96.00;;;;;;5084094;28;20066;-53
2022/05/18 00:29:06;;;;;;;10.15;5.00;;;27.90;96.00;;;;;;5083509;28;20021;-54
2022/05/18 00:31:36;;;;;;;10.48;4.82;;;27.80;95.90;;;;;;5083693;28;20032;-55
2022/05/18 00:34:03;;;;;;;8.25;4.22;;;27.90;96.00;;;;;;5097924;28;20090;-65
2022/05/18 00:36:30;;;;;;;7.43;3.92;;;27.80;96.10;;;;;;5092403;28;20062;-63
2022/05/18 00:38:56;;;;;;;6.82;4.10;;;27.80;96.20;;;;;;5083450;28;20251;-63
2022/05/18 00:41:24;;;;;;;7.22;4.13;;;27.80;96.20;;;;;;5087571;28;20024;-64
2022/05/18 00:43:52;;;;;;;9.43;4.50;;;27.70;96.40;;;;;;5086034;28;20024;-62
2022/05/18 00:46:18;;;;;;;11.27;3.95;;;27.70;96.30;;;;;;5088021;28;20074;-61
2022/05/18 00:48:45;;;;;;;6.22;3.95;;;27.60;96.30;;;;;;5088244;28;20021;-59
2022/05/18 00:51:28;;;;;;;6.75;3.58;;;27.60;96.30;;;;;;5087285;28;20082;-60
2022/05/18 00:54:03;;;;;;;9.00;3.97;;;27.60;96.40;;;;;;5087147;28;20070;-62
2022/05/18 00:56:44;;;;;;;7.75;4.43;;;27.60;96.50;;;;;;5086076;28;20016;-62
2022/05/18 00:59:50;;;;;;;8.73;4.40;;;27.60;96.40;;;;;;5086687;28;20031;-63
2022/05/18 01:02:19;;;;;;;9.70;4.40;;;27.50;96.50;;;;;;5047441;28;20064;-63
2022/05/18 01:04:49;;;;;;;7.97;4.00;;;27.50;96.50;;;;;;5087203;28;20024;-62
2022/05/18 01:07:30;;;;;;;10.13;4.93;;;27.50;96.50;;;;;;5087845;28;20028;-62
2022/05/18 01:09:58;;;;;;;7.50;4.53;;;27.50;96.40;;;;;;5086896;28;20208;-63
2022/05/18 01:12:25;;;;;;;8.68;4.20;;;27.50;96.40;;;;;;5086275;28;20025;-63
2022/05/18 01:15:01;;;;;;;8.60;4.47;;;27.40;96.50;;;;;;5086535;28;20051;-62
2022/05/18 01:17:40;;;;;;;8.27;4.80;;;27.40;96.70;;;;;;5085622;28;20020;-64
2022/05/18 01:20:14;;;;;;;9.25;4.40;;;27.40;96.50;;;;;;5087083;28;20024;-63
2022/05/18 01:22:59;;;;;;;6.97;4.22;;;27.40;96.40;;;;;;5086552;28;20321;-63
2022/05/18 01:25:50;;;;;;;9.10;3.92;;;27.40;96.30;;;;;;5086231;28;20024;-62
2022/05/18 01:28:17;;;;;;;8.55;3.85;;;27.30;96.20;;;;;;5085419;28;20100;-62
2022/05/18 01:30:48;;;;;;;8.52;3.65;;;27.40;96.30;;;;;;5086456;28;20231;-62
2022/05/18 01:33:18;;;;;;;10.88;4.47;;;27.30;96.30;;;;;;5085731;28;20051;-61
2022/05/18 01:35:50;;;;;;;12.48;4.38;;;27.30;96.40;;;;;;5098292;28;20044;-63
2022/05/18 01:38:17;;;;;;;8.68;4.03;;;27.30;96.50;;;;;;5086638;28;20099;-63
2022/05/18 01:41:03;;;;;;;8.68;4.55;;;27.30;96.40;;;;;;5101980;28;20315;-63
2022/05/18 01:43:44;;;;;;;9.98;4.50;;;27.30;96.50;;;;;;5107146;28;20028;-62
2022/05/18 01:46:13;;;;;;;11.77;4.43;;;27.20;96.60;;;;;;5098106;28;20251;-61
2022/05/18 01:48:49;;;;;;;9.70;4.50;;;27.20;96.80;;;;;;5094183;28;20016;-61
2022/05/18 01:51:29;;;;;;;10.38;4.10;;;27.20;96.90;;;;;;5096890;28;20047;-56
2022/05/18 01:53:56;;;;;;;9.98;4.82;;;27.20;96.80;;;;;;5100258;28;20023;-61
2022/05/18 01:56:23;;;;;;;7.22;4.57;;;27.20;96.80;;;;;;5106565;28;20288;-61
2022/05/18 01:58:49;;;;;;;10.20;3.90;;;27.20;97.00;;;;;;5103831;28;20024;-60
2022/05/18 02:01:16;;;;;;;6.97;3.05;;;27.20;96.80;;;;;;5085830;28;20035;-64
2022/05/18 02:03:43;;;;;;;7.18;2.83;;;27.20;96.80;;;;;;5086128;28;20036;-63
2022/05/18 02:06:12;;;;;;;6.90;2.72;;;27.20;96.90;;;;;;5085786;28;20027;-60
2022/05/18 02:08:41;;;;;;;9.18;3.30;;;27.20;96.90;;;;;;5086009;28;20016;-62
2022/05/18 02:11:16;;;;;;;6.70;2.72;;;27.10;96.90;;;;;;5086244;28;20220;-62
2022/05/18 02:13:43;;;;;;;7.93;2.75;;;27.10;96.90;;;;;;5085694;28;20228;-59
2022/05/18 02:16:13;;;;;;;8.52;2.30;;;27.10;97.00;;;;;;5085516;28;20315;-64
2022/05/18 02:18:40;;;;;;;9.07;2.20;;;26.90;96.60;;;;;;5085491;28;20035;-61
2022/05/18 02:21:09;;;;;;;10.07;2.50;;;26.90;96.60;;;;;;5098253;28;20311;-56
2022/05/18 02:23:37;;;;;;;6.32;2.20;;;26.90;96.50;;;;;;5102637;28;20789;-54
2022/05/18 02:26:12;;;;;;;5.47;1.90;;;27.00;96.40;;;;;;5092741;28;20209;-53
2022/05/18 02:28:40;;;;;;;5.30;1.83;;;27.10;96.10;;;;;;5085233;28;20017;-52
2022/05/18 02:31:08;;;;;;;5.15;1.75;;;27.10;95.90;;;;;;5085343;28;20285;-56
2022/05/18 02:33:35;;;;;;;9.73;2.60;;;27.10;95.70;;;;;;5085088;28;20039;-58
2022/05/18 02:36:02;;;;;;;11.23;2.67;;;27.10;95.60;;;;;;5084941;28;20039;-54
2022/05/18 02:38:29;;;;;;;5.30;2.20;;;27.20;95.50;;;;;;5085190;28;20024;-52
2022/05/18 02:41:00;;;;;;;7.20;2.00;;;27.20;95.40;;;;;;5083918;28;20066;-52
2022/05/18 02:43:27;;;;;;;7.47;2.50;;;27.20;95.40;;;;;;5085390;28;20021;-57
2022/05/18 02:46:08;;;;;;;10.20;2.40;;;27.20;95.40;;;;;;5085222;28;20356;-53
2022/05/18 02:48:36;;;;;;;8.93;2.50;;;27.20;95.30;;;;;;5084287;28;20028;-52
2022/05/18 02:51:04;;;;;;;8.45;2.30;;;27.30;95.30;;;;;;5092104;28;20016;-59
2022/05/18 02:53:30;;;;;;;12.05;2.65;;;27.20;95.30;;;;;;5094587;28;20038;-58
2022/05/18 02:56:06;;;;;;;9.77;2.70;;;27.30;95.40;;;;;;5095905;28;20023;-53
2022/05/18 02:58:43;;;;;;;7.82;2.95;;;27.30;95.40;;;;;;5095402;28;20020;-57
2022/05/18 03:01:15;;;;;;;6.45;2.50;;;27.20;95.30;;;;;;5094867;28;20027;-57
2022/05/18 03:03:44;;;;;;;9.00;2.63;;;27.20;95.30;;;;;;5094716;28;20035;-55
2022/05/18 03:06:12;;;;;;;7.32;2.70;;;27.30;95.30;;;;;;5093405;28;20016;-57
2022/05/18 03:08:41;;;;;;;9.40;3.17;;;27.30;95.20;;;;;;5094106;28;20012;-51
2022/05/18 03:11:09;;;;;;;10.63;3.47;;;27.20;95.20;;;;;;5088023;28;20016;-55
2022/05/18 03:13:36;;;;;;;11.18;3.78;;;27.20;95.20;;;;;;5084990;28;20198;-53
2022/05/18 03:16:03;;;;;;;8.98;3.03;;;27.30;95.30;;;;;;5084513;28;20020;-53
2022/05/18 03:18:30;;;;;;;10.05;3.30;;;27.20;95.30;;;;;;5084847;28;20044;-56
2022/05/18 03:23:42;;;;;;;9.43;3.00;;;27.20;95.40;;;;;;5104313;28;20025;-54
2022/05/18 03:26:10;;;;;;;13.20;2.97;;;27.20;95.40;;;;;;5104271;28;20020;-55
2022/05/18 03:28:38;;;;;;;7.75;2.90;;;27.20;95.50;;;;;;5097591;28;20028;-53
2022/05/18 03:31:06;;;;;;;11.60;2.70;;;27.20;95.50;;;;;;5093119;28;20024;-55
2022/05/18 03:33:34;;;;;;;6.50;2.22;;;27.20;95.40;;;;;;5093732;28;20062;-55
2022/05/18 03:36:02;;;;;;;10.38;2.20;;;27.20;95.40;;;;;;5095169;28;20019;-56
2022/05/18 03:38:29;;;;;;;12.00;2.20;;;27.20;95.40;;;;;;5100338;28;20032;-63
2022/05/18 03:40:56;;;;;;;6.45;2.33;;;27.20;95.40;;;;;;5093206;28;20032;-52
2022/05/18 03:43:23;;;;;;;7.32;2.42;;;27.20;95.40;;;;;;5084244;28;20051;-50
2022/05/18 03:45:50;;;;;;;12.02;2.35;;;27.20;95.40;;;;;;5084089;28;20047;-58
2022/05/18 03:48:18;;;;;;;9.13;1.98;;;27.20;95.40;;;;;;5083897;28;20036;-56
2022/05/18 03:50:47;;;;;;;9.30;2.47;;;27.20;95.40;;;;;;5084178;28;20196;-57
2022/05/18 03:53:15;;;;;;;7.47;1.83;;;27.20;95.40;;;;;;5083941;28;20422;-55
2022/05/18 03:55:43;;;;;;;7.80;2.00;;;27.20;95.70;;;;;;5083301;28;20040;-48
2022/05/18 03:58:11;;;;;;;7.03;1.98;;;27.20;95.40;;;;;;5084260;28;20031;-50
2022/05/18 04:00:40;;;;;;;11.35;2.47;;;27.20;95.50;;;;;;5084582;28;20028;-55
2022/05/18 04:03:08;;;;;;;9.43;2.83;;;27.20;95.50;;;;;;5086901;28;20060;-52
2022/05/18 04:05:48;;;;;;;13.38;2.97;;;27.20;95.40;;;;;;5085202;28;20306;-54
2022/05/18 04:08:16;;;;;;;8.95;3.03;;;27.10;95.40;;;;;;5088840;28;20043;-59
2022/05/18 04:10:42;;;;;;;11.38;2.97;;;27.10;95.40;;;;;;5093503;28;20086;-52
2022/05/18 04:13:14;;;;;;;11.55;3.33;;;27.10;95.40;;;;;;5086270;28;20020;-57
2022/05/18 04:15:41;;;;;;;6.57;2.80;;;27.10;95.50;;;;;;5088550;28;20356;-55
2022/05/18 04:18:08;;;;;;;6.82;2.42;;;27.10;95.40;;;;;;5088500;28;20024;-53
2022/05/18 04:20:36;;;;;;;6.35;2.60;;;27.10;95.40;;;;;;5087891;28;20031;-51
2022/05/18 04:23:03;;;;;;;7.07;2.53;;;27.10;95.30;;;;;;5087975;28;20029;-56
2022/05/18 04:25:30;;;;;;;8.30;2.28;;;27.00;95.30;;;;;;5088213;28;20020;-49
2022/05/18 04:27:56;;;;;;;10.05;2.40;;;27.00;95.30;;;;;;5088030;28;20297;-52
2022/05/18 04:30:25;;;;;;;9.35;2.30;;;27.00;95.30;;;;;;5087472;28;20081;-52
2022/05/18 04:32:53;;;;;;;5.63;2.00;;;27.00;95.30;;;;;;5087899;28;20331;-54
2022/05/18 04:35:23;;;;;;;10.13;2.30;;;27.00;95.30;;;;;;5087434;28;20020;-55
2022/05/18 04:37:50;;;;;;;9.23;2.13;;;27.00;95.30;;;;;;5087555;28;20021;-54
2022/05/18 04:40:18;;;;;;;8.70;2.13;;;27.00;95.20;;;;;;5087145;28;20035;-57
2022/05/18 04:42:44;;;;;;;8.45;2.22;;;27.00;95.20;;;;;;5087169;28;20028;-57
2022/05/18 04:45:14;;;;;;;14.45;2.47;;;27.00;95.20;;;;;;5087130;28;20051;-58
2022/05/18 04:47:41;;;;;;;6.30;1.90;;;27.00;95.20;;;;;;5087174;28;20024;-54
2022/05/18 04:50:08;;;;;;;7.45;2.35;;;27.00;95.20;;;;;;5086931;28;20056;-56
2022/05/18 04:52:35;;;;;;;8.90;2.15;;;27.00;95.20;;;;;;5086961;28;20038;-51
2022/05/18 04:55:02;;;;;;;10.52;2.05;;;27.00;95.20;;;;;;5087066;28;20024;-56
2022/05/18 04:57:29;;;;;;;10.23;2.25;;;27.00;95.20;;;;;;5087351;28;20039;-52
2022/05/18 04:59:55;;;;;;;8.02;1.83;;;26.90;95.20;;;;;;5086895;28;20103;-52
2022/05/18 05:02:22;;;;;;;16.40;2.20;;;26.90;95.20;;;;;;5086905;28;20048;-52
2022/05/18 05:04:48;;;;;;;10.45;1.90;;;26.90;95.20;;;;;;5086997;28;20095;-56
2022/05/18 05:07:15;;;;;;;9.85;1.85;;;26.90;95.20;;;;;;5087143;28;20228;-53
2022/05/18 05:09:41;;;;;;;9.02;2.05;;;26.90;95.30;;;;;;5086801;28;20313;-51
2022/05/18 05:12:09;;;;;;;12.55;2.00;;;26.90;95.30;;;;;;5087198;28;20028;-54
2022/05/18 05:14:40;;;;;;;10.27;1.80;;;26.90;95.30;;;;;;5086612;28;20404;-53
2022/05/18 05:17:07;;;;;;;7.88;1.85;;;26.90;95.20;;;;;;5086992;28;20016;-51
2022/05/18 05:19:36;;;;;;;9.57;2.25;;;26.90;95.30;;;;;;5086454;28;20070;-53
2022/05/18 05:22:04;;;;;;;9.20;2.28;;;26.90;95.30;;;;;;5086893;28;20058;-51
2022/05/18 05:24:31;;;;;;;8.20;2.03;;;26.90;95.30;;;;;;5085805;28;20017;-51
2022/05/18 05:27:00;;;;;;;12.65;2.13;;;26.90;95.30;;;;;;5086644;28;20020;-51
2022/05/18 05:29:27;;;;;;;9.30;1.83;;;26.90;95.30;;;;;;5086427;28;20036;-47
2022/05/18 05:31:53;;;;;;;10.70;1.88;;;26.90;95.30;;;;;;5086749;28;20076;-51
2022/05/18 05:34:20;;;;;;;8.98;2.15;;;26.90;95.30;;;;;;5086242;28;20024;-54
2022/05/18 05:36:46;;;;;;;12.77;2.00;;;26.90;95.40;;;;;;5086603;28;20021;-52
2022/05/18 05:39:13;;;;;;;7.28;1.70;;;26.90;95.40;;;;;;5086272;28;20031;-54
2022/05/18 05:41:42;;;;;;;10.15;2.08;;;26.80;95.40;;;;;;5086435;28;20058;-50
2022/05/18 05:44:10;;;;;;;7.55;1.73;;;26.80;95.40;;;;;;5086146;28;20032;-49
2022/05/18 05:46:37;;;;;;;9.43;2.20;;;26.80;95.40;;;;;;5086385;28;20024;-52
2022/05/18 05:49:04;;;;;;;13.90;2.45;;;26.80;95.40;;;;;;5085895;28;20282;-54
2022/05/18 05:51:30;;;;;;;11.40;2.20;;;26.90;95.50;;;;;;5086593;28;20196;-54
2022/05/18 05:53:57;;;;;;;7.45;1.80;;;26.90;95.50;;;;;;5086007;28;20025;-54
2022/05/18 05:56:23;;;;;;;6.28;1.70;;;26.90;95.50;;;;;;5086030;28;20028;-54
2022/05/18 05:58:50;;;;;;;7.32;2.05;;;26.90;95.50;;;;;;5085903;28;20028;-52
2022/05/18 06:01:18;;;;;;;6.72;2.00;;;26.90;95.50;;;;;;5085910;28;20020;-51
2022/05/18 06:03:45;;;;;;;7.47;2.03;;;26.90;95.50;;;;;;5085728;28;20035;-50
2022/05/18 06:06:12;;;;;;;7.80;2.00;;;26.90;95.50;;;;;;5085867;28;20032;-58
2022/05/18 06:08:40;;;;;;;9.32;2.08;;;26.80;95.50;;;;;;5085724;28;20032;-53
2022/05/18 06:11:09;;;;;;;9.73;1.60;;;26.80;95.50;;;;;;5085707;28;20024;-50
2022/05/18 06:13:36;;;;;;;9.45;1.85;;;26.80;95.50;;;;;;5085594;28;20025;-51
2022/05/18 06:16:03;;;;;;;10.93;1.92;;;26.80;95.50;;;;;;5085701;28;20240;-52
2022/05/18 06:18:30;;;;;;;11.60;2.10;;;26.80;95.40;;;;;;5085416;28;20024;-53
2022/05/18 06:20:59;;;;;;;8.85;1.67;;;26.80;95.40;;;;;;5085501;28;20313;-48
2022/05/18 06:23:26;;;;;;;14.63;2.10;;;26.80;95.40;;;;;;5085306;28;20028;-50
2022/05/18 06:25:52;;;;;;;13.52;2.00;;;26.80;95.40;;;;;;5085299;28;20024;-50
2022/05/18 06:28:19;;;;;;;7.13;1.83;;;26.80;95.40;;;;;;5085386;28;20036;-52
2022/05/18 06:30:46;;;;;;;7.65;1.70;;;26.80;95.40;;;;;;5085329;28;20235;-54
2022/05/18 06:33:12;;;;;;;6.78;1.70;;;26.70;95.40;;;;;;5085253;28;20020;-57
2022/05/18 06:35:39;;;;;;;12.43;1.80;;;26.70;95.40;;;;;;5085128;28;20056;-54
2022/05/18 06:38:15;;;;;;;13.02;1.75;;;26.70;95.20;;;;;;5084523;28;20021;-54
2022/05/18 06:43:27;;;;;;;9.23;1.83;;;26.70;95.00;;;;;;5085132;28;20043;-54
2022/05/18 06:45:54;;;;;;;8.25;1.60;;;26.70;95.00;;;;;;5084892;28;20023;-51
2022/05/18 06:48:21;;;;;;;15.70;1.77;;;26.70;95.00;;;;;;5084904;28;20051;-55
2022/05/18 06:50:47;;;;;;;11.75;1.42;;;26.60;94.90;;;;;;5084872;28;20066;-52
2022/05/18 06:53:14;;;;;;;7.25;1.48;;;26.70;94.90;;;;;;5084733;28;20084;-57
2022/05/18 06:55:40;;;;;;;9.70;1.73;;;26.70;94.90;;;;;;5084904;28;20089;-49
2022/05/18 06:58:07;;;;;;;7.40;1.50;;;26.60;94.90;;;;;;5084686;28;20021;-54
2022/05/18 07:00:34;;;;;;;10.73;1.23;;;26.60;95.00;;;;;;5084678;28;20111;-52
2022/05/18 07:03:00;;;;;;;9.48;1.45;;;26.60;95.00;;;;;;5084421;28;20101;-53
2022/05/18 07:05:27;;;;;;;16.15;1.80;;;26.60;95.00;;;;;;5084649;28;20026;-52
2022/05/18 07:07:54;;;;;;;8.77;1.40;;;26.70;95.00;;;;;;5084602;28;20048;-52
2022/05/18 07:10:21;;;;;;;10.90;1.60;;;26.60;95.10;;;;;;5084596;28;20021;-51
2022/05/18 07:12:47;;;;;;;5.68;1.30;;;26.60;95.10;;;;;;5084487;28;20029;-54
2022/05/18 07:15:14;;;;;;;7.72;1.20;;;26.60;95.10;;;;;;5084403;28;20070;-56
2022/05/18 07:17:41;;;;;;;8.35;1.48;;;26.70;95.10;;;;;;5084262;28;20244;-56
2022/05/18 07:20:08;;;;;;;7.43;1.25;;;26.60;95.00;;;;;;5084302;28;20339;-53
2022/05/18 07:22:35;;;;;;;7.60;1.60;;;26.60;95.00;;;;;;5084230;28;20031;-51
2022/05/18 07:25:01;;;;;;;8.07;1.45;;;26.60;95.00;;;;;;5083989;28;20063;-56
2022/05/18 07:27:28;;;;;;;5.70;1.35;;;26.60;95.00;;;;;;5084646;28;20016;-51
2022/05/18 07:29:54;;;;;;;7.35;1.33;;;26.60;95.10;;;;;;5084146;28;20025;-49
2022/05/18 07:32:21;;;;;;;10.05;1.55;;;26.60;95.10;;;;;;5084463;28;20027;-53
2022/05/18 07:34:48;;;;;;;15.38;1.40;;;26.60;95.10;;;;;;5084171;28;20024;-56
2022/05/18 07:37:18;;;;;;;11.02;1.48;;;26.60;95.10;;;;;;5084483;28;20025;-51
2022/05/18 07:39:45;;;;;;;6.95;1.45;;;26.60;95.10;;;;;;5083860;28;20028;-50
2022/05/18 07:42:12;;;;;;;11.43;1.65;;;26.60;95.20;;;;;;5084414;28;20304;-54
2022/05/18 07:44:39;;;;;;;11.40;1.70;;;26.60;95.20;;;;;;5083954;28;20265;-55
2022/05/18 07:47:07;;;;;;;9.95;1.42;;;26.60;95.20;;;;;;5084139;28;20023;-54
2022/05/18 07:49:36;;;;;;;8.27;1.10;;;26.60;95.20;;;;;;5083876;28;20024;-49
2022/05/18 07:52:03;;;;;;;10.52;1.80;;;26.60;95.20;;;;;;5084311;28;20016;-50
2022/05/18 07:54:30;;;;;;;8.73;1.88;;;26.60;95.20;;;;;;5083772;28;20028;-51
2022/05/18 07:56:57;;;;;;;9.38;1.33;;;26.60;95.20;;;;;;5084263;28;20023;-52
2022/05/18 07:59:23;;;;;;;9.00;1.58;;;26.60;95.10;;;;;;5083882;28;20031;-52
2022/05/18 08:01:51;;;;;;;7.28;1.38;;;26.60;95.10;;;;;;5083900;28;20106;-51
2022/05/18 08:04:18;;;;;;;8.10;1.13;;;26.60;95.00;;;;;;5083799;28;20024;-51
2022/05/18 08:06:45;;;;;;;13.40;1.15;;;26.60;95.10;;;;;;5083664;28;20363;-53
2022/05/18 08:09:11;;;;;;;8.02;1.48;;;26.60;95.10;;;;;;5083691;28;20265;-57
2022/05/18 08:15:05;;;;;;;7.57;1.38;;;26.60;95.20;;;;;;5083634;28;20062;-56
2022/05/18 08:17:18;;;;;;;10.23;1.15;;;26.60;95.10;;;;;;5084103;28;20161;-53
2022/05/18 08:19:44;;;;;;;11.27;1.58;;;26.60;95.20;;;;;;5083598;28;20032;-51
2022/05/18 08:22:11;;;;;;;7.80;1.60;;;26.60;95.10;;;;;;5084087;28;20075;-51
2022/05/18 08:24:38;;;;;;;7.35;1.40;;;26.60;95.10;;;;;;5083476;28;20016;-56
2022/05/18 08:27:06;;;;;;;8.65;1.30;;;26.50;95.10;;;;;;5083869;28;20377;-53
2022/05/18 08:29:35;;;;;;;9.95;1.25;;;26.50;95.10;;;;;;5083768;28;20028;-50
2022/05/18 08:32:02;;;;;;;7.53;1.20;;;26.50;95.10;;;;;;5083873;28;20021;-52
2022/05/18 08:34:28;;;;;;;7.55;1.25;;;26.50;95.10;;;;;;5083464;28;20292;-56
2022/05/18 08:36:55;;;;;;;4.70;1.00;;;26.50;95.00;;;;;;5083894;28;20024;-51
2022/05/18 08:39:22;;;;;;;3.35;0.90;;;26.60;95.00;;;;;;5083513;28;20312;-50
2022/05/18 08:41:51;;;;;;;3.45;1.38;;;26.50;94.90;;;;;;5083692;28;20074;-51
2022/05/18 08:44:36;;;;;;;4.90;1.10;;;26.50;95.00;;;;;;5083704;28;20228;-49
2022/05/18 08:47:05;;;;;;;6.00;1.00;;;26.50;94.90;;;;;;5083648;28;20028;-49
2022/05/18 08:49:51;;;;;;;3.17;1.10;;;26.50;94.90;;;;;;5083395;28;20023;-55
2022/05/18 08:52:37;;;;;;;5.03;1.00;;;26.50;94.90;;;;;;5083134;28;20044;-52
2022/05/18 08:55:25;;;;;;;5.10;1.10;;;26.40;94.80;;;;;;5083338;28;20056;-49
2022/05/18 08:57:54;;;;;;;2.75;1.08;;;26.40;94.80;;;;;;5083301;28;20031;-54
2022/05/18 09:00:29;;;;;;;7.03;1.00;;;26.40;94.80;;;;;;5084907;28;20043;-58
2022/05/18 09:03:06;;;;;;;5.18;1.20;;;26.40;94.70;;;;;;5086762;28;20056;-53
2022/05/18 09:05:44;;;;;;;4.57;1.38;;;26.40;94.60;;;;;;5086850;28;20021;-54
2022/05/18 09:08:19;;;;;;;5.45;1.20;;;26.40;94.50;;;;;;5086769;28;20221;-54
2022/05/18 09:11:08;;;;;;;6.60;1.17;;;26.40;94.50;;;;;;5087255;28;20039;-52
2022/05/18 09:13:36;;;;;;;3.78;1.00;;;26.40;94.40;;;;;;5086454;28;20035;-52
2022/05/18 09:16:27;;;;;;;4.68;0.90;;;26.40;94.40;;;;;;5086813;28;20048;-49
2022/05/18 09:19:08;;;;;;;6.97;0.93;;;26.40;94.30;;;;;;5086741;28;20027;-50
2022/05/18 09:21:47;;;;;;;3.23;0.83;;;26.40;94.30;;;;;;5086894;28;20027;-52
2022/05/18 09:24:19;;;;;;;4.50;0.77;;;26.30;94.20;;;;;;5086457;28;20308;-52
2022/05/18 09:26:55;;;;;;;5.68;1.50;;;26.30;94.20;;;;;;5086656;28;20024;-53
2022/05/18 09:29:51;;;;;;;3.25;0.90;;;26.30;94.10;;;;;;5086727;28;20024;-54
2022/05/18 09:32:58;;;;;;;5.55;0.90;;;26.40;94.10;;;;;;5086723;28;20092;-54
2022/05/18 09:35:43;;;;;;;8.95;1.17;;;26.40;94.10;;;;;;5024484;28;20037;-53
2022/05/18 09:38:32;;;;;;;2.05;0.73;;;26.40;94.10;;;;;;5024772;28;20022;-57
2022/05/18 09:41:00;;;;;;;2.95;0.93;;;26.40;94.10;;;;;;5072496;28;20032;-52
2022/05/18 09:43:56;;;;;;;4.82;0.80;;;26.40;94.00;;;;;;5086220;28;20027;-51
2022/05/18 09:46:25;;;;;;;5.93;0.82;;;26.40;94.00;;;;;;5085916;28;20036;-50
2022/05/18 09:49:23;;;;;;;5.13;0.98;;;26.40;93.90;;;;;;5086378;28;20012;-47
2022/05/18 09:51:52;;;;;;;3.58;0.70;;;26.40;93.90;;;;;;5086297;28;20313;-48
2022/05/18 09:54:18;;;;;;;4.35;1.13;;;26.30;93.80;;;;;;5085864;28;20020;-52
2022/05/18 09:57:05;;;;;;;4.07;0.82;;;26.30;93.70;;;;;;5086256;28;20025;-50
2022/05/18 09:59:40;;;;;;;5.22;0.85;;;26.30;93.90;;;;;;5085908;28;20309;-54
2022/05/18 10:07:50;;;;;;;2.28;0.63;;;26.30;93.60;;;;;;5086085;28;20027;-53
2022/05/18 10:10:30;;;;;;;3.78;0.80;;;26.30;93.60;;;;;;5085509;28;20365;-53
2022/05/18 10:13:00;;;;;;;3.60;0.93;;;26.30;93.60;;;;;;5085893;28;20028;-56
2022/05/18 10:15:26;;;;;;;2.95;0.70;;;26.30;93.60;;;;;;5084358;28;20043;-51
2022/05/18 10:18:00;;;;;;;2.92;0.85;;;26.30;93.60;;;;;;5085596;28;20028;-53
2022/05/18 10:20:34;;;;;;;3.40;0.70;;;26.30;93.50;;;;;;5085545;28;20375;-56
2022/05/18 10:23:02;;;;;;;3.70;0.60;;;26.30;93.50;;;;;;5085483;28;20052;-56
2022/05/18 10:25:47;;;;;;;4.00;0.80;;;26.30;93.60;;;;;;5084203;28;20031;-54
2022/05/18 10:28:25;;;;;;;3.42;0.90;;;26.30;93.60;;;;;;5085747;28;20032;-52
2022/05/18 10:31:07;;;;;;;3.75;0.82;;;26.30;93.50;;;;;;5085479;28;20040;-53
2022/05/18 10:33:41;;;;;;;6.20;1.35;;;26.30;93.60;;;;;;5085178;28;20025;-60
2022/05/18 10:36:11;;;;;;;4.78;1.70;;;26.30;93.60;;;;;;5085346;28;20024;-53
2022/05/18 10:39:02;;;;;;;7.13;1.55;;;26.30;93.60;;;;;;5085031;28;20036;-54
2022/05/18 10:41:42;;;;;;;9.10;2.10;;;26.30;93.60;;;;;;5085423;28;20091;-50
2022/05/18 10:44:20;;;;;;;11.35;1.75;;;26.30;93.70;;;;;;5084995;28;20056;-53
2022/05/18 10:46:50;;;;;;;7.63;1.60;;;26.30;93.80;;;;;;5084019;28;20035;-54
2022/05/18 10:49:34;;;;;;;8.05;2.10;;;26.30;93.80;;;;;;5083984;28;20021;-52
2022/05/18 10:52:16;;;;;;;9.73;2.00;;;26.30;93.80;;;;;;5083765;28;20027;-51
2022/05/18 10:55:03;;;;;;;6.60;1.43;;;26.30;93.90;;;;;;5085082;28;20024;-53
2022/05/18 10:57:34;;;;;;;7.57;1.90;;;26.30;93.90;;;;;;5085270;28;20316;-55
2022/05/18 11:00:10;;;;;;;7.13;2.25;;;26.30;94.00;;;;;;5083691;28;20031;-52
2022/05/18 11:02:47;;;;;;;6.50;2.05;;;26.30;94.10;;;;;;5083462;28;20224;-56
2022/05/18 11:05:22;;;;;;;7.28;1.80;;;26.30;94.10;;;;;;5084594;28;20020;-55
2022/05/18 11:07:49;;;;;;;8.40;1.77;;;26.30;94.20;;;;;;5084558;28;20021;-53
2022/05/18 11:10:19;;;;;;;19.77;2.35;;;26.30;94.30;;;;;;5083213;28;20045;-55
2022/05/18 11:13:25;;;;;;;8.70;1.90;;;26.30;94.30;;;;;;5084376;28;20028;-48
2022/05/18 11:16:23;;;;;;;7.45;1.60;;;26.30;94.40;;;;;;5043158;28;20020;-48
2022/05/18 11:19:21;;;;;;;11.25;2.15;;;26.30;94.40;;;;;;5082733;28;20025;-55
2022/05/18 11:22:25;;;;;;;5.60;1.40;;;26.30;94.40;;;;;;5081569;28;20008;-56
2022/05/18 11:25:03;;;;;;;10.38;2.38;;;26.30;94.30;;;;;;5082423;28;20179;-52
2022/05/18 11:27:46;;;;;;;19.33;2.90;;;26.30;94.30;;;;;;5083171;28;20016;-53
2022/05/18 11:30:19;;;;;;;12.95;2.25;;;26.30;94.30;;;;;;5081943;28;20359;-57
2022/05/18 11:33:10;;;;;;;10.60;2.08;;;26.30;94.20;;;;;;5082429;28;20366;-55
2022/05/18 11:36:01;;;;;;;9.07;2.10;;;26.30;94.20;;;;;;5082442;28;20256;-54
2022/05/18 11:38:46;;;;;;;6.05;1.70;;;26.40;94.30;;;;;;5082542;28;20052;-49
2022/05/18 11:41:24;;;;;;;7.40;1.60;;;26.30;94.30;;;;;;5082836;28;20235;-54
2022/05/18 11:44:29;;;;;;;7.40;1.73;;;26.40;94.40;;;;;;5082483;28;20051;-47
2022/05/18 11:47:02;;;;;;;8.73;1.77;;;26.30;94.60;;;;;;5083736;28;20023;-47
2022/05/18 11:49:56;;;;;;;5.05;1.58;;;26.30;94.60;;;;;;5084375;28;20020;-51
2022/05/18 11:52:35;;;;;;;6.82;1.17;;;26.30;94.60;;;;;;5084571;28;20019;-53
2022/05/18 11:55:30;;;;;;;9.35;1.30;;;26.30;94.70;;;;;;5083747;28;20029;-50
2022/05/18 11:58:38;;;;;;;7.72;1.15;;;26.30;94.70;;;;;;5084046;28;20025;-50
2022/05/18 12:01:20;;;;;;;5.97;1.10;;;26.30;94.80;;;;;;5083847;28;20087;-54
2022/05/18 12:04:15;;;;;;;7.50;1.52;;;26.30;94.90;;;;;;5083596;28;20059;-48
2022/05/18 12:07:01;;;;;;;5.57;1.30;;;26.30;94.90;;;;;;5082517;28;20043;-50
2022/05/18 12:09:51;;;;;;;7.32;1.30;;;26.30;95.00;;;;;;5083733;28;20020;-48
2022/05/18 12:12:46;;;;;;;5.57;1.10;;;26.20;94.90;;;;;;5054904;28;20442;-56
2022/05/18 12:15:34;;;;;;;2.95;1.00;;;26.30;95.00;;;;;;5083849;28;20194;-52
2022/05/18 12:18:08;;;;;;;4.85;0.85;;;26.30;95.10;;;;;;5083644;28;20025;-51
2022/05/18 12:21:02;;;;;;;6.50;1.15;;;26.30;95.00;;;;;;5083407;28;20062;-55
2022/05/18 12:23:33;;;;;;;4.03;1.05;;;26.20;95.00;;;;;;5083436;28;20096;-56
2022/05/18 12:26:00;;;;;;;6.05;0.90;;;26.30;94.90;;;;;;5083532;28;20101;-53
2022/05/18 12:28:28;;;;;;;4.30;1.00;;;26.30;94.90;;;;;;5083415;28;20020;-51
2022/05/18 12:30:56;;;;;;;7.65;1.08;;;26.30;94.90;;;;;;5083652;28;20015;-52
2022/05/18 12:33:25;;;;;;;4.90;0.77;;;26.30;94.90;;;;;;5083360;28;20095;-48
2022/05/18 12:36:06;;;;;;;2.75;0.63;;;26.30;94.90;;;;;;5086274;28;20066;-57
2022/05/18 12:38:39;;;;;;;4.88;0.90;;;26.30;94.90;;;;;;5087303;28;20077;-55
2022/05/18 12:41:11;;;;;;;3.45;0.70;;;26.30;94.90;;;;;;5087506;28;20020;-48
2022/05/18 12:43:39;;;;;;;2.17;0.68;;;26.30;94.90;;;;;;5087321;28;20040;-53
2022/05/18 12:46:33;;;;;;;3.97;1.10;;;26.30;94.80;;;;;;5087220;28;20019;-50
2022/05/18 12:49:02;;;;;;;5.15;0.75;;;26.40;94.80;;;;;;5059478;28;20064;-50
2022/05/18 12:51:32;;;;;;;4.95;0.77;;;26.40;94.80;;;;;;5087268;28;20331;-50
2022/05/18 12:54:10;;;;;;;3.67;0.90;;;26.40;94.90;;;;;;5087180;28;20055;-49
2022/05/18 12:56:37;;;;;;;10.63;1.70;;;26.40;95.00;;;;;;5087182;28;20082;-51
2022/05/18 12:59:09;;;;;;;28.70;3.22;;;26.40;95.00;;;;;;5087082;28;20020;-56
2022/05/18 13:01:41;;;;;;;29.63;3.00;;;26.40;95.00;;;;;;5087026;28;20044;-54
2022/05/18 13:04:11;;;;;;;25.67;2.80;;;26.40;95.00;;;;;;5087073;28;20063;-55
2022/05/18 13:06:57;;;;;;;46.75;5.00;;;26.40;95.00;;;;;;5087162;28;20031;-48
2022/05/18 13:09:24;;;;;;;48.40;5.10;;;26.50;95.10;;;;;;5086862;28;20064;-52
2022/05/18 13:11:57;;;;;;;50.97;4.88;;;26.50;95.10;;;;;;5087287;28;20072;-53
2022/05/18 13:14:45;;;;;;;58.70;6.43;;;26.50;95.10;;;;;;5086623;28;20034;-55
2022/05/18 13:17:12;;;;;;;54.17;5.75;;;26.50;95.00;;;;;;5087434;28;20017;-54
2022/05/18 13:19:47;;;;;;;37.20;5.35;;;26.60;95.00;;;;;;5086507;28;20025;-47
2022/05/18 13:22:17;;;;;;;38.50;4.55;;;26.60;95.00;;;;;;5086901;28;20022;-58
2022/05/18 13:24:59;;;;;;;53.83;5.88;;;26.60;95.00;;;;;;5086307;28;20091;-48
2022/05/18 13:27:34;;;;;;;;;;;26.60;95.00;;;;;;5087384;28;20016;-49